LiveATC.Net - Listen to live air traffic control over the Internet!


ICAO: KPAE  IATA: PAE   Airport: Snohomish County Airport (Paine Field)
City: Everett   State/Province: Washington
Country: United States   Continent: North America
KPAE METAR Weather: KPAE 282153Z 36005KT 10SM CLR 20/11 A3028 RMK AO2 SLP254 T02000106
KPAE Flight Activity (FlightAware)
KPAE Webcam:  (Airport Webcams) 
KPAE Airport Info   (iFlightPlanner)
KPAE VFR Sectional Chart   (iFlightPlanner) 
KPAE IFR Low Chart   (iFlightPlanner) 

KPAE Gnd/Twr/App
Feed Status: UP   Listeners: 0
Listen in your browser - HTML5 player (in browser, HTML5)
Click here to listen with your own player (launches your MP3 player)
Archive Access: KPAE Gnd/Twr/App
FacilityFrequency
Paine Ground121.800
Paine Tower120.200
Paine Tower132.950
Seattle Approach128.500

NOTICE

Unauthorized use prohibited. See LiveATC.net Terms of Service


Airport/ARTCC Code
Frequency Search
(e.g., 124.400, 128.75)
Site-wide search
 


Browse Feeds
Top 50 Feeds
Coverage Map
Bad Weather Areas

LiveATC FAQ
Offer LiveATC feed
Contact LiveATC.net
Press Inquiries

LiveATC on iPhone
LiveATC on Android

Windows Phone
Windows 8/10

LiveATC Mobile
(Mobile browser)

ATC Audio Archives
Interesting Recordings

LiveATC Forums


Home Page
About LiveATC.net
Make a Donation
Terms of Use
Privacy Policy

Canadian Air Freqs

AIRMETs/SIGMETs

FAA Airport Status
Nat'l Airspace Status
Arrival Demand Charts


Server Software By:
Icecast.org
Liquidsoap